<?xml version="1.0" encoding="UTF-8" standalone="no" ?>
<gpx xmlns="http://www.topografix.com/GPX/1/1" xmlns:xsi="http://www.w3.org/2001/XMLSchema-instance" xsi:schemaLocation="http://www.topografix.com/GPX/1/1 http://www.topografix.com/GPX/1/1/gpx.xsd" version="1.1" creator="VisuGPX - https://www.visugpx.com">
  <metadata>
    <name>COURGENT CIVRY LA FORET DAMMARTIN EN SEVRE</name>
  </metadata>
  <trk>
    <name><![CDATA[COURGENT CIVRY LA FORET DAMMARTIN EN SEVRE-17941788]]></name>
    <trkseg>
      <trkpt lat="48.89353" lon="1.65953">
        <ele>65</ele>
        <time>2024-10-25T07:56:49Z</time>
      </trkpt>
      <trkpt lat="48.8935" lon="1.65943">
        <ele>64</ele>
        <time>2024-10-25T07:56:59Z</time>
      </trkpt>
      <trkpt lat="48.89356" lon="1.65961">
        <ele>65</ele>
        <time>2024-10-25T07:57:16Z</time>
      </trkpt>
      <trkpt lat="48.89357" lon="1.65957">
        <ele>65</ele>
        <time>2024-10-25T07:57:20Z</time>
      </trkpt>
      <trkpt lat="48.89337" lon="1.65969">
        <ele>64</ele>
        <time>2024-10-25T07:57:49Z</time>
      </trkpt>
      <trkpt lat="48.89307" lon="1.65975">
        <ele>66</ele>
        <time>2024-10-25T07:58:29Z</time>
      </trkpt>
      <trkpt lat="48.89269" lon="1.65969">
        <ele>69</ele>
        <time>2024-10-25T07:59:20Z</time>
      </trkpt>
      <trkpt lat="48.89259" lon="1.65971">
        <ele>70</ele>
        <time>2024-10-25T07:59:34Z</time>
      </trkpt>
      <trkpt lat="48.89249" lon="1.65982">
        <ele>71</ele>
        <time>2024-10-25T07:59:50Z</time>
      </trkpt>
      <trkpt lat="48.89247" lon="1.6598">
        <ele>71</ele>
        <time>2024-10-25T07:59:53Z</time>
      </trkpt>
      <trkpt lat="48.89236" lon="1.65966">
        <ele>75</ele>
        <time>2024-10-25T08:00:12Z</time>
      </trkpt>
      <trkpt lat="48.89223" lon="1.65933">
        <ele>80</ele>
        <time>2024-10-25T08:00:46Z</time>
      </trkpt>
      <trkpt lat="48.89216" lon="1.65893">
        <ele>83</ele>
        <time>2024-10-25T08:01:22Z</time>
      </trkpt>
      <trkpt lat="48.8921" lon="1.65881">
        <ele>85</ele>
        <time>2024-10-25T08:01:36Z</time>
      </trkpt>
      <trkpt lat="48.89211" lon="1.65871">
        <ele>85</ele>
        <time>2024-10-25T08:01:45Z</time>
      </trkpt>
      <trkpt lat="48.89193" lon="1.65835">
        <ele>91</ele>
        <time>2024-10-25T08:02:24Z</time>
      </trkpt>
      <trkpt lat="48.89186" lon="1.65768">
        <ele>94</ele>
        <time>2024-10-25T08:03:24Z</time>
      </trkpt>
      <trkpt lat="48.89175" lon="1.65745">
        <ele>97</ele>
        <time>2024-10-25T08:03:49Z</time>
      </trkpt>
      <trkpt lat="48.89152" lon="1.65711">
        <ele>100</ele>
        <time>2024-10-25T08:04:32Z</time>
      </trkpt>
      <trkpt lat="48.89107" lon="1.65662">
        <ele>101</ele>
        <time>2024-10-25T08:05:45Z</time>
      </trkpt>
      <trkpt lat="48.89063" lon="1.65638">
        <ele>100</ele>
        <time>2024-10-25T08:06:48Z</time>
      </trkpt>
      <trkpt lat="48.89059" lon="1.65628">
        <ele>99</ele>
        <time>2024-10-25T08:06:58Z</time>
      </trkpt>
      <trkpt lat="48.89061" lon="1.65609">
        <ele>98</ele>
        <time>2024-10-25T08:07:15Z</time>
      </trkpt>
      <trkpt lat="48.8908" lon="1.65549">
        <ele>91</ele>
        <time>2024-10-25T08:08:13Z</time>
      </trkpt>
      <trkpt lat="48.89103" lon="1.65514">
        <ele>85</ele>
        <time>2024-10-25T08:08:57Z</time>
      </trkpt>
      <trkpt lat="48.89111" lon="1.65493">
        <ele>82</ele>
        <time>2024-10-25T08:09:18Z</time>
      </trkpt>
      <trkpt lat="48.8913" lon="1.65468">
        <ele>77</ele>
        <time>2024-10-25T08:09:52Z</time>
      </trkpt>
      <trkpt lat="48.8913" lon="1.65456">
        <ele>76</ele>
        <time>2024-10-25T08:10:02Z</time>
      </trkpt>
      <trkpt lat="48.89135" lon="1.65454">
        <ele>75</ele>
        <time>2024-10-25T08:10:09Z</time>
      </trkpt>
      <trkpt lat="48.8913" lon="1.65438">
        <ele>74</ele>
        <time>2024-10-25T08:10:25Z</time>
      </trkpt>
      <trkpt lat="48.89112" lon="1.65408">
        <ele>73</ele>
        <time>2024-10-25T08:11:00Z</time>
      </trkpt>
      <trkpt lat="48.891" lon="1.65373">
        <ele>74</ele>
        <time>2024-10-25T08:11:35Z</time>
      </trkpt>
      <trkpt lat="48.89103" lon="1.65314">
        <ele>72</ele>
        <time>2024-10-25T08:12:27Z</time>
      </trkpt>
      <trkpt lat="48.89098" lon="1.653">
        <ele>72</ele>
        <time>2024-10-25T08:12:41Z</time>
      </trkpt>
      <trkpt lat="48.89096" lon="1.65231">
        <ele>71</ele>
        <time>2024-10-25T08:13:41Z</time>
      </trkpt>
      <trkpt lat="48.8909" lon="1.65197">
        <ele>72</ele>
        <time>2024-10-25T08:14:12Z</time>
      </trkpt>
      <trkpt lat="48.89068" lon="1.65145">
        <ele>76</ele>
        <time>2024-10-25T08:15:06Z</time>
      </trkpt>
      <trkpt lat="48.89064" lon="1.65107">
        <ele>76</ele>
        <time>2024-10-25T08:15:40Z</time>
      </trkpt>
      <trkpt lat="48.89066" lon="1.65076">
        <ele>76</ele>
        <time>2024-10-25T08:16:08Z</time>
      </trkpt>
      <trkpt lat="48.89056" lon="1.65058">
        <ele>78</ele>
        <time>2024-10-25T08:16:28Z</time>
      </trkpt>
      <trkpt lat="48.89056" lon="1.65007">
        <ele>78</ele>
        <time>2024-10-25T08:17:13Z</time>
      </trkpt>
      <trkpt lat="48.89063" lon="1.64977">
        <ele>76</ele>
        <time>2024-10-25T08:17:41Z</time>
      </trkpt>
      <trkpt lat="48.89058" lon="1.64947">
        <ele>76</ele>
        <time>2024-10-25T08:18:08Z</time>
      </trkpt>
      <trkpt lat="48.89061" lon="1.64896">
        <ele>75</ele>
        <time>2024-10-25T08:18:53Z</time>
      </trkpt>
      <trkpt lat="48.89054" lon="1.64854">
        <ele>76</ele>
        <time>2024-10-25T08:19:31Z</time>
      </trkpt>
      <trkpt lat="48.89057" lon="1.64821">
        <ele>77</ele>
        <time>2024-10-25T08:20:00Z</time>
      </trkpt>
      <trkpt lat="48.89072" lon="1.64749">
        <ele>78</ele>
        <time>2024-10-25T08:21:07Z</time>
      </trkpt>
      <trkpt lat="48.89076" lon="1.64704">
        <ele>81</ele>
        <time>2024-10-25T08:21:46Z</time>
      </trkpt>
      <trkpt lat="48.89105" lon="1.6461">
        <ele>82</ele>
        <time>2024-10-25T08:23:17Z</time>
      </trkpt>
      <trkpt lat="48.89106" lon="1.64572">
        <ele>83</ele>
        <time>2024-10-25T08:23:51Z</time>
      </trkpt>
      <trkpt lat="48.89117" lon="1.64554">
        <ele>81</ele>
        <time>2024-10-25T08:24:12Z</time>
      </trkpt>
      <trkpt lat="48.8912" lon="1.64534">
        <ele>81</ele>
        <time>2024-10-25T08:24:30Z</time>
      </trkpt>
      <trkpt lat="48.89118" lon="1.64493">
        <ele>80</ele>
        <time>2024-10-25T08:25:06Z</time>
      </trkpt>
      <trkpt lat="48.89111" lon="1.64453">
        <ele>79</ele>
        <time>2024-10-25T08:25:43Z</time>
      </trkpt>
      <trkpt lat="48.8908" lon="1.64316">
        <ele>76</ele>
        <time>2024-10-25T08:27:50Z</time>
      </trkpt>
      <trkpt lat="48.89064" lon="1.64272">
        <ele>78</ele>
        <time>2024-10-25T08:28:34Z</time>
      </trkpt>
      <trkpt lat="48.89053" lon="1.64254">
        <ele>80</ele>
        <time>2024-10-25T08:28:56Z</time>
      </trkpt>
      <trkpt lat="48.89049" lon="1.6423">
        <ele>81</ele>
        <time>2024-10-25T08:29:17Z</time>
      </trkpt>
      <trkpt lat="48.89037" lon="1.64204">
        <ele>83</ele>
        <time>2024-10-25T08:29:45Z</time>
      </trkpt>
      <trkpt lat="48.89036" lon="1.64052">
        <ele>83</ele>
        <time>2024-10-25T08:31:59Z</time>
      </trkpt>
      <trkpt lat="48.89043" lon="1.63935">
        <ele>83</ele>
        <time>2024-10-25T08:33:42Z</time>
      </trkpt>
      <trkpt lat="48.89061" lon="1.63845">
        <ele>83</ele>
        <time>2024-10-25T08:35:04Z</time>
      </trkpt>
      <trkpt lat="48.89096" lon="1.63759">
        <ele>82</ele>
        <time>2024-10-25T08:36:33Z</time>
      </trkpt>
      <trkpt lat="48.89099" lon="1.63739">
        <ele>83</ele>
        <time>2024-10-25T08:36:51Z</time>
      </trkpt>
      <trkpt lat="48.89077" lon="1.63764">
        <ele>86</ele>
        <time>2024-10-25T08:37:28Z</time>
      </trkpt>
      <trkpt lat="48.8908" lon="1.63673">
        <ele>93</ele>
        <time>2024-10-25T08:38:48Z</time>
      </trkpt>
      <trkpt lat="48.89084" lon="1.63654">
        <ele>93</ele>
        <time>2024-10-25T08:39:05Z</time>
      </trkpt>
      <trkpt lat="48.89083" lon="1.63617">
        <ele>92</ele>
        <time>2024-10-25T08:39:38Z</time>
      </trkpt>
      <trkpt lat="48.89075" lon="1.63601">
        <ele>93</ele>
        <time>2024-10-25T08:39:55Z</time>
      </trkpt>
      <trkpt lat="48.89069" lon="1.6358">
        <ele>93</ele>
        <time>2024-10-25T08:40:15Z</time>
      </trkpt>
      <trkpt lat="48.89045" lon="1.63564">
        <ele>95</ele>
        <time>2024-10-25T08:40:50Z</time>
      </trkpt>
      <trkpt lat="48.89016" lon="1.63561">
        <ele>98</ele>
        <time>2024-10-25T08:41:29Z</time>
      </trkpt>
      <trkpt lat="48.88998" lon="1.63571">
        <ele>101</ele>
        <time>2024-10-25T08:41:55Z</time>
      </trkpt>
      <trkpt lat="48.88966" lon="1.63581">
        <ele>104</ele>
        <time>2024-10-25T08:42:38Z</time>
      </trkpt>
      <trkpt lat="48.88928" lon="1.63553">
        <ele>105</ele>
        <time>2024-10-25T08:43:35Z</time>
      </trkpt>
      <trkpt lat="48.88912" lon="1.63538">
        <ele>106</ele>
        <time>2024-10-25T08:44:00Z</time>
      </trkpt>
      <trkpt lat="48.88877" lon="1.63491">
        <ele>108</ele>
        <time>2024-10-25T08:45:02Z</time>
      </trkpt>
      <trkpt lat="48.88853" lon="1.63468">
        <ele>109</ele>
        <time>2024-10-25T08:45:40Z</time>
      </trkpt>
      <trkpt lat="48.8884" lon="1.63448">
        <ele>111</ele>
        <time>2024-10-25T08:46:04Z</time>
      </trkpt>
      <trkpt lat="48.88812" lon="1.6342">
        <ele>112</ele>
        <time>2024-10-25T08:46:49Z</time>
      </trkpt>
      <trkpt lat="48.88791" lon="1.63389">
        <ele>111</ele>
        <time>2024-10-25T08:47:28Z</time>
      </trkpt>
      <trkpt lat="48.8878" lon="1.63364">
        <ele>111</ele>
        <time>2024-10-25T08:47:55Z</time>
      </trkpt>
      <trkpt lat="48.88769" lon="1.63309">
        <ele>111</ele>
        <time>2024-10-25T08:48:45Z</time>
      </trkpt>
      <trkpt lat="48.88723" lon="1.63181">
        <ele>111</ele>
        <time>2024-10-25T08:50:53Z</time>
      </trkpt>
      <trkpt lat="48.88693" lon="1.63124">
        <ele>110</ele>
        <time>2024-10-25T08:51:57Z</time>
      </trkpt>
      <trkpt lat="48.88658" lon="1.63076">
        <ele>109</ele>
        <time>2024-10-25T08:53:00Z</time>
      </trkpt>
      <trkpt lat="48.88561" lon="1.6298">
        <ele>110</ele>
        <time>2024-10-25T08:55:34Z</time>
      </trkpt>
      <trkpt lat="48.88548" lon="1.62974">
        <ele>110</ele>
        <time>2024-10-25T08:55:53Z</time>
      </trkpt>
      <trkpt lat="48.88536" lon="1.62959">
        <ele>111</ele>
        <time>2024-10-25T08:56:13Z</time>
      </trkpt>
      <trkpt lat="48.88513" lon="1.62942">
        <ele>111</ele>
        <time>2024-10-25T08:56:47Z</time>
      </trkpt>
      <trkpt lat="48.88468" lon="1.62923">
        <ele>111</ele>
        <time>2024-10-25T08:57:50Z</time>
      </trkpt>
      <trkpt lat="48.88448" lon="1.62918">
        <ele>110</ele>
        <time>2024-10-25T08:58:17Z</time>
      </trkpt>
      <trkpt lat="48.88426" lon="1.62918">
        <ele>110</ele>
        <time>2024-10-25T08:58:46Z</time>
      </trkpt>
      <trkpt lat="48.88399" lon="1.62903">
        <ele>109</ele>
        <time>2024-10-25T08:59:25Z</time>
      </trkpt>
      <trkpt lat="48.8837" lon="1.62897">
        <ele>109</ele>
        <time>2024-10-25T09:00:04Z</time>
      </trkpt>
      <trkpt lat="48.88359" lon="1.62897">
        <ele>109</ele>
        <time>2024-10-25T09:00:18Z</time>
      </trkpt>
      <trkpt lat="48.88303" lon="1.62916">
        <ele>110</ele>
        <time>2024-10-25T09:01:35Z</time>
      </trkpt>
      <trkpt lat="48.88291" lon="1.62916">
        <ele>110</ele>
        <time>2024-10-25T09:01:51Z</time>
      </trkpt>
      <trkpt lat="48.88249" lon="1.62887">
        <ele>110</ele>
        <time>2024-10-25T09:02:52Z</time>
      </trkpt>
      <trkpt lat="48.88219" lon="1.62855">
        <ele>112</ele>
        <time>2024-10-25T09:03:41Z</time>
      </trkpt>
      <trkpt lat="48.88154" lon="1.628">
        <ele>114</ele>
        <time>2024-10-25T09:05:21Z</time>
      </trkpt>
      <trkpt lat="48.88113" lon="1.62751">
        <ele>117</ele>
        <time>2024-10-25T09:06:30Z</time>
      </trkpt>
      <trkpt lat="48.88086" lon="1.62725">
        <ele>118</ele>
        <time>2024-10-25T09:07:13Z</time>
      </trkpt>
      <trkpt lat="48.88053" lon="1.62702">
        <ele>118</ele>
        <time>2024-10-25T09:08:01Z</time>
      </trkpt>
      <trkpt lat="48.87968" lon="1.62618">
        <ele>120</ele>
        <time>2024-10-25T09:10:17Z</time>
      </trkpt>
      <trkpt lat="48.87945" lon="1.62603">
        <ele>121</ele>
        <time>2024-10-25T09:10:50Z</time>
      </trkpt>
      <trkpt lat="48.87898" lon="1.62562">
        <ele>122</ele>
        <time>2024-10-25T09:12:02Z</time>
      </trkpt>
      <trkpt lat="48.87623" lon="1.62276">
        <ele>122</ele>
        <time>2024-10-25T09:19:27Z</time>
      </trkpt>
      <trkpt lat="48.87548" lon="1.62173">
        <ele>124</ele>
        <time>2024-10-25T09:21:42Z</time>
      </trkpt>
      <trkpt lat="48.87521" lon="1.62143">
        <ele>125</ele>
        <time>2024-10-25T09:22:26Z</time>
      </trkpt>
      <trkpt lat="48.87463" lon="1.62058">
        <ele>128</ele>
        <time>2024-10-25T09:24:14Z</time>
      </trkpt>
      <trkpt lat="48.87456" lon="1.62054">
        <ele>128</ele>
        <time>2024-10-25T09:24:24Z</time>
      </trkpt>
      <trkpt lat="48.87447" lon="1.62058">
        <ele>128</ele>
        <time>2024-10-25T09:24:36Z</time>
      </trkpt>
      <trkpt lat="48.8744" lon="1.62055">
        <ele>128</ele>
        <time>2024-10-25T09:24:46Z</time>
      </trkpt>
      <trkpt lat="48.8742" lon="1.62025">
        <ele>129</ele>
        <time>2024-10-25T09:25:24Z</time>
      </trkpt>
      <trkpt lat="48.87414" lon="1.62025">
        <ele>129</ele>
        <time>2024-10-25T09:25:32Z</time>
      </trkpt>
      <trkpt lat="48.87418" lon="1.62017">
        <ele>129</ele>
        <time>2024-10-25T09:25:40Z</time>
      </trkpt>
      <trkpt lat="48.87414" lon="1.61988">
        <ele>129</ele>
        <time>2024-10-25T09:26:06Z</time>
      </trkpt>
      <trkpt lat="48.87371" lon="1.61931">
        <ele>130</ele>
        <time>2024-10-25T09:27:22Z</time>
      </trkpt>
      <trkpt lat="48.87346" lon="1.61906">
        <ele>130</ele>
        <time>2024-10-25T09:28:02Z</time>
      </trkpt>
      <trkpt lat="48.87316" lon="1.61886">
        <ele>129</ele>
        <time>2024-10-25T09:28:46Z</time>
      </trkpt>
      <trkpt lat="48.873" lon="1.61884">
        <ele>129</ele>
        <time>2024-10-25T09:29:08Z</time>
      </trkpt>
      <trkpt lat="48.87269" lon="1.61891">
        <ele>129</ele>
        <time>2024-10-25T09:29:49Z</time>
      </trkpt>
      <trkpt lat="48.87256" lon="1.61898">
        <ele>129</ele>
        <time>2024-10-25T09:30:08Z</time>
      </trkpt>
      <trkpt lat="48.87213" lon="1.6194">
        <ele>129</ele>
        <time>2024-10-25T09:31:16Z</time>
      </trkpt>
      <trkpt lat="48.87161" lon="1.61949">
        <ele>128</ele>
        <time>2024-10-25T09:32:26Z</time>
      </trkpt>
      <trkpt lat="48.87105" lon="1.6194">
        <ele>129</ele>
        <time>2024-10-25T09:33:41Z</time>
      </trkpt>
      <trkpt lat="48.87069" lon="1.61928">
        <ele>129</ele>
        <time>2024-10-25T09:34:30Z</time>
      </trkpt>
      <trkpt lat="48.8699" lon="1.61918">
        <ele>129</ele>
        <time>2024-10-25T09:36:16Z</time>
      </trkpt>
      <trkpt lat="48.86925" lon="1.61949">
        <ele>129</ele>
        <time>2024-10-25T09:37:47Z</time>
      </trkpt>
      <trkpt lat="48.86868" lon="1.61991">
        <ele>127</ele>
        <time>2024-10-25T09:39:11Z</time>
      </trkpt>
      <trkpt lat="48.86855" lon="1.61995">
        <ele>127</ele>
        <time>2024-10-25T09:39:29Z</time>
      </trkpt>
      <trkpt lat="48.86828" lon="1.62015">
        <ele>127</ele>
        <time>2024-10-25T09:40:09Z</time>
      </trkpt>
      <trkpt lat="48.86812" lon="1.62019">
        <ele>126</ele>
        <time>2024-10-25T09:40:31Z</time>
      </trkpt>
      <trkpt lat="48.86797" lon="1.62007">
        <ele>126</ele>
        <time>2024-10-25T09:40:53Z</time>
      </trkpt>
      <trkpt lat="48.86764" lon="1.61904">
        <ele>125</ele>
        <time>2024-10-25T09:42:34Z</time>
      </trkpt>
      <trkpt lat="48.86735" lon="1.61884">
        <ele>124</ele>
        <time>2024-10-25T09:43:16Z</time>
      </trkpt>
      <trkpt lat="48.86699" lon="1.61871">
        <ele>123</ele>
        <time>2024-10-25T09:44:06Z</time>
      </trkpt>
      <trkpt lat="48.86687" lon="1.61885">
        <ele>123</ele>
        <time>2024-10-25T09:44:26Z</time>
      </trkpt>
      <trkpt lat="48.86636" lon="1.61997">
        <ele>122</ele>
        <time>2024-10-25T09:46:26Z</time>
      </trkpt>
      <trkpt lat="48.86617" lon="1.62028">
        <ele>123</ele>
        <time>2024-10-25T09:47:03Z</time>
      </trkpt>
      <trkpt lat="48.86588" lon="1.62054">
        <ele>124</ele>
        <time>2024-10-25T09:47:48Z</time>
      </trkpt>
      <trkpt lat="48.8656" lon="1.62092">
        <ele>125</ele>
        <time>2024-10-25T09:48:38Z</time>
      </trkpt>
      <trkpt lat="48.86551" lon="1.62096">
        <ele>125</ele>
        <time>2024-10-25T09:48:50Z</time>
      </trkpt>
      <trkpt lat="48.86511" lon="1.62132">
        <ele>126</ele>
        <time>2024-10-25T09:49:52Z</time>
      </trkpt>
      <trkpt lat="48.86478" lon="1.62174">
        <ele>127</ele>
        <time>2024-10-25T09:50:50Z</time>
      </trkpt>
      <trkpt lat="48.86404" lon="1.62243">
        <ele>128</ele>
        <time>2024-10-25T09:52:46Z</time>
      </trkpt>
      <trkpt lat="48.86336" lon="1.62286">
        <ele>130</ele>
        <time>2024-10-25T09:54:24Z</time>
      </trkpt>
      <trkpt lat="48.86268" lon="1.62322">
        <ele>132</ele>
        <time>2024-10-25T09:56:00Z</time>
      </trkpt>
      <trkpt lat="48.86226" lon="1.62372">
        <ele>133</ele>
        <time>2024-10-25T09:57:11Z</time>
      </trkpt>
      <trkpt lat="48.86203" lon="1.62367">
        <ele>133</ele>
        <time>2024-10-25T09:57:42Z</time>
      </trkpt>
      <trkpt lat="48.8622" lon="1.62371">
        <ele>133</ele>
        <time>2024-10-25T09:58:05Z</time>
      </trkpt>
      <trkpt lat="48.86226" lon="1.62369">
        <ele>133</ele>
        <time>2024-10-25T09:58:13Z</time>
      </trkpt>
      <trkpt lat="48.86233" lon="1.62354">
        <ele>133</ele>
        <time>2024-10-25T09:58:30Z</time>
      </trkpt>
      <trkpt lat="48.86229" lon="1.62263">
        <ele>133</ele>
        <time>2024-10-25T09:59:50Z</time>
      </trkpt>
      <trkpt lat="48.86235" lon="1.62178">
        <ele>132</ele>
        <time>2024-10-25T10:01:05Z</time>
      </trkpt>
      <trkpt lat="48.86222" lon="1.62023">
        <ele>130</ele>
        <time>2024-10-25T10:03:22Z</time>
      </trkpt>
      <trkpt lat="48.8622" lon="1.62035">
        <ele>130</ele>
        <time>2024-10-25T10:03:33Z</time>
      </trkpt>
      <trkpt lat="48.86224" lon="1.62016">
        <ele>130</ele>
        <time>2024-10-25T10:03:50Z</time>
      </trkpt>
      <trkpt lat="48.86221" lon="1.61976">
        <ele>129</ele>
        <time>2024-10-25T10:04:26Z</time>
      </trkpt>
      <trkpt lat="48.86226" lon="1.61924">
        <ele>128</ele>
        <time>2024-10-25T10:05:12Z</time>
      </trkpt>
      <trkpt lat="48.86218" lon="1.61873">
        <ele>128</ele>
        <time>2024-10-25T10:05:58Z</time>
      </trkpt>
      <trkpt lat="48.86224" lon="1.61857">
        <ele>128</ele>
        <time>2024-10-25T10:06:14Z</time>
      </trkpt>
      <trkpt lat="48.8624" lon="1.61764">
        <ele>126</ele>
        <time>2024-10-25T10:07:38Z</time>
      </trkpt>
      <trkpt lat="48.86239" lon="1.61738">
        <ele>127</ele>
        <time>2024-10-25T10:08:01Z</time>
      </trkpt>
      <trkpt lat="48.86252" lon="1.61687">
        <ele>126</ele>
        <time>2024-10-25T10:08:49Z</time>
      </trkpt>
      <trkpt lat="48.8626" lon="1.61633">
        <ele>125</ele>
        <time>2024-10-25T10:09:38Z</time>
      </trkpt>
      <trkpt lat="48.86281" lon="1.61573">
        <ele>122</ele>
        <time>2024-10-25T10:10:37Z</time>
      </trkpt>
      <trkpt lat="48.86279" lon="1.6155">
        <ele>122</ele>
        <time>2024-10-25T10:10:58Z</time>
      </trkpt>
      <trkpt lat="48.86283" lon="1.61494">
        <ele>122</ele>
        <time>2024-10-25T10:11:47Z</time>
      </trkpt>
      <trkpt lat="48.86302" lon="1.61438">
        <ele>120</ele>
        <time>2024-10-25T10:12:43Z</time>
      </trkpt>
      <trkpt lat="48.86302" lon="1.6143">
        <ele>120</ele>
        <time>2024-10-25T10:12:50Z</time>
      </trkpt>
      <trkpt lat="48.8628" lon="1.61373">
        <ele>121</ele>
        <time>2024-10-25T10:13:48Z</time>
      </trkpt>
      <trkpt lat="48.86287" lon="1.61209">
        <ele>115</ele>
        <time>2024-10-25T10:16:12Z</time>
      </trkpt>
      <trkpt lat="48.86301" lon="1.61179">
        <ele>114</ele>
        <time>2024-10-25T10:16:44Z</time>
      </trkpt>
      <trkpt lat="48.86413" lon="1.61103">
        <ele>118</ele>
        <time>2024-10-25T10:19:28Z</time>
      </trkpt>
      <trkpt lat="48.86475" lon="1.61071">
        <ele>121</ele>
        <time>2024-10-25T10:20:55Z</time>
      </trkpt>
      <trkpt lat="48.86485" lon="1.61057">
        <ele>122</ele>
        <time>2024-10-25T10:21:13Z</time>
      </trkpt>
      <trkpt lat="48.86457" lon="1.60901">
        <ele>118</ele>
        <time>2024-10-25T10:23:35Z</time>
      </trkpt>
      <trkpt lat="48.86367" lon="1.60728">
        <ele>114</ele>
        <time>2024-10-25T10:26:49Z</time>
      </trkpt>
      <trkpt lat="48.86348" lon="1.60662">
        <ele>114</ele>
        <time>2024-10-25T10:27:52Z</time>
      </trkpt>
      <trkpt lat="48.86283" lon="1.60604">
        <ele>114</ele>
        <time>2024-10-25T10:29:33Z</time>
      </trkpt>
      <trkpt lat="48.86251" lon="1.6054">
        <ele>114</ele>
        <time>2024-10-25T10:30:43Z</time>
      </trkpt>
      <trkpt lat="48.86237" lon="1.60452">
        <ele>114</ele>
        <time>2024-10-25T10:32:03Z</time>
      </trkpt>
      <trkpt lat="48.86238" lon="1.60387">
        <ele>115</ele>
        <time>2024-10-25T10:33:00Z</time>
      </trkpt>
      <trkpt lat="48.86254" lon="1.60273">
        <ele>117</ele>
        <time>2024-10-25T10:34:42Z</time>
      </trkpt>
      <trkpt lat="48.8625" lon="1.60141">
        <ele>118</ele>
        <time>2024-10-25T10:36:38Z</time>
      </trkpt>
      <trkpt lat="48.86248" lon="1.60125">
        <ele>119</ele>
        <time>2024-10-25T10:36:52Z</time>
      </trkpt>
      <trkpt lat="48.86214" lon="1.60021">
        <ele>120</ele>
        <time>2024-10-25T10:38:34Z</time>
      </trkpt>
      <trkpt lat="48.86202" lon="1.59966">
        <ele>121</ele>
        <time>2024-10-25T10:39:25Z</time>
      </trkpt>
      <trkpt lat="48.86206" lon="1.59977">
        <ele>121</ele>
        <time>2024-10-25T10:39:36Z</time>
      </trkpt>
      <trkpt lat="48.86226" lon="1.59981">
        <ele>120</ele>
        <time>2024-10-25T10:40:03Z</time>
      </trkpt>
      <trkpt lat="48.86467" lon="1.59994">
        <ele>123</ele>
        <time>2024-10-25T10:45:25Z</time>
      </trkpt>
      <trkpt lat="48.86487" lon="1.6">
        <ele>123</ele>
        <time>2024-10-25T10:45:52Z</time>
      </trkpt>
      <trkpt lat="48.86542" lon="1.59997">
        <ele>123</ele>
        <time>2024-10-25T10:47:06Z</time>
      </trkpt>
      <trkpt lat="48.86592" lon="1.60008">
        <ele>123</ele>
        <time>2024-10-25T10:48:13Z</time>
      </trkpt>
      <trkpt lat="48.86603" lon="1.59996">
        <ele>123</ele>
        <time>2024-10-25T10:48:31Z</time>
      </trkpt>
      <trkpt lat="48.86627" lon="1.60006">
        <ele>122</ele>
        <time>2024-10-25T10:49:04Z</time>
      </trkpt>
      <trkpt lat="48.86641" lon="1.59941">
        <ele>123</ele>
        <time>2024-10-25T10:50:04Z</time>
      </trkpt>
      <trkpt lat="48.86664" lon="1.5986">
        <ele>124</ele>
        <time>2024-10-25T10:51:22Z</time>
      </trkpt>
      <trkpt lat="48.86699" lon="1.59686">
        <ele>125</ele>
        <time>2024-10-25T10:54:02Z</time>
      </trkpt>
      <trkpt lat="48.86717" lon="1.59617">
        <ele>126</ele>
        <time>2024-10-25T10:55:07Z</time>
      </trkpt>
      <trkpt lat="48.86767" lon="1.59355">
        <ele>122</ele>
        <time>2024-10-25T10:59:06Z</time>
      </trkpt>
      <trkpt lat="48.86821" lon="1.59103">
        <ele>120</ele>
        <time>2024-10-25T11:02:59Z</time>
      </trkpt>
      <trkpt lat="48.86915" lon="1.59217">
        <ele>118</ele>
        <time>2024-10-25T11:05:39Z</time>
      </trkpt>
      <trkpt lat="48.87012" lon="1.5927">
        <ele>114</ele>
        <time>2024-10-25T11:07:57Z</time>
      </trkpt>
      <trkpt lat="48.87064" lon="1.5936">
        <ele>112</ele>
        <time>2024-10-25T11:09:42Z</time>
      </trkpt>
      <trkpt lat="48.87086" lon="1.59364">
        <ele>112</ele>
        <time>2024-10-25T11:10:12Z</time>
      </trkpt>
      <trkpt lat="48.87104" lon="1.59373">
        <ele>113</ele>
        <time>2024-10-25T11:10:37Z</time>
      </trkpt>
      <trkpt lat="48.87122" lon="1.59412">
        <ele>114</ele>
        <time>2024-10-25T11:11:19Z</time>
      </trkpt>
      <trkpt lat="48.87144" lon="1.5948">
        <ele>113</ele>
        <time>2024-10-25T11:12:25Z</time>
      </trkpt>
      <trkpt lat="48.8717" lon="1.59528">
        <ele>111</ele>
        <time>2024-10-25T11:13:20Z</time>
      </trkpt>
      <trkpt lat="48.87211" lon="1.59573">
        <ele>112</ele>
        <time>2024-10-25T11:14:27Z</time>
      </trkpt>
      <trkpt lat="48.87231" lon="1.59602">
        <ele>112</ele>
        <time>2024-10-25T11:15:04Z</time>
      </trkpt>
      <trkpt lat="48.87248" lon="1.59616">
        <ele>113</ele>
        <time>2024-10-25T11:15:30Z</time>
      </trkpt>
      <trkpt lat="48.87299" lon="1.59696">
        <ele>117</ele>
        <time>2024-10-25T11:17:08Z</time>
      </trkpt>
      <trkpt lat="48.87306" lon="1.59717">
        <ele>118</ele>
        <time>2024-10-25T11:17:28Z</time>
      </trkpt>
      <trkpt lat="48.87329" lon="1.59765">
        <ele>119</ele>
        <time>2024-10-25T11:18:21Z</time>
      </trkpt>
      <trkpt lat="48.87345" lon="1.59797">
        <ele>118</ele>
        <time>2024-10-25T11:18:56Z</time>
      </trkpt>
      <trkpt lat="48.87375" lon="1.59848">
        <ele>119</ele>
        <time>2024-10-25T11:19:56Z</time>
      </trkpt>
      <trkpt lat="48.87391" lon="1.5988">
        <ele>119</ele>
        <time>2024-10-25T11:20:31Z</time>
      </trkpt>
      <trkpt lat="48.874" lon="1.59904">
        <ele>120</ele>
        <time>2024-10-25T11:20:55Z</time>
      </trkpt>
      <trkpt lat="48.87414" lon="1.59927">
        <ele>121</ele>
        <time>2024-10-25T11:21:23Z</time>
      </trkpt>
      <trkpt lat="48.87422" lon="1.59958">
        <ele>121</ele>
        <time>2024-10-25T11:21:52Z</time>
      </trkpt>
      <trkpt lat="48.87436" lon="1.59984">
        <ele>122</ele>
        <time>2024-10-25T11:22:22Z</time>
      </trkpt>
      <trkpt lat="48.87462" lon="1.60067">
        <ele>125</ele>
        <time>2024-10-25T11:23:42Z</time>
      </trkpt>
      <trkpt lat="48.8747" lon="1.60082">
        <ele>125</ele>
        <time>2024-10-25T11:23:59Z</time>
      </trkpt>
      <trkpt lat="48.87477" lon="1.60085">
        <ele>126</ele>
        <time>2024-10-25T11:24:09Z</time>
      </trkpt>
      <trkpt lat="48.87478" lon="1.60077">
        <ele>126</ele>
        <time>2024-10-25T11:24:16Z</time>
      </trkpt>
      <trkpt lat="48.8748" lon="1.60103">
        <ele>125</ele>
        <time>2024-10-25T11:24:39Z</time>
      </trkpt>
      <trkpt lat="48.87517" lon="1.60171">
        <ele>123</ele>
        <time>2024-10-25T11:25:57Z</time>
      </trkpt>
      <trkpt lat="48.87522" lon="1.60173">
        <ele>123</ele>
        <time>2024-10-25T11:26:03Z</time>
      </trkpt>
      <trkpt lat="48.87534" lon="1.60167">
        <ele>123</ele>
        <time>2024-10-25T11:26:20Z</time>
      </trkpt>
      <trkpt lat="48.87597" lon="1.60109">
        <ele>126</ele>
        <time>2024-10-25T11:27:59Z</time>
      </trkpt>
      <trkpt lat="48.876" lon="1.60096">
        <ele>127</ele>
        <time>2024-10-25T11:28:11Z</time>
      </trkpt>
      <trkpt lat="48.87598" lon="1.60072">
        <ele>128</ele>
        <time>2024-10-25T11:28:32Z</time>
      </trkpt>
      <trkpt lat="48.87611" lon="1.59951">
        <ele>125</ele>
        <time>2024-10-25T11:30:20Z</time>
      </trkpt>
      <trkpt lat="48.8761" lon="1.59865">
        <ele>124</ele>
        <time>2024-10-25T11:31:35Z</time>
      </trkpt>
      <trkpt lat="48.87619" lon="1.59799">
        <ele>123</ele>
        <time>2024-10-25T11:32:34Z</time>
      </trkpt>
      <trkpt lat="48.87639" lon="1.59799">
        <ele>124</ele>
        <time>2024-10-25T11:33:01Z</time>
      </trkpt>
      <trkpt lat="48.87672" lon="1.59811">
        <ele>124</ele>
        <time>2024-10-25T11:33:46Z</time>
      </trkpt>
      <trkpt lat="48.87743" lon="1.59851">
        <ele>126</ele>
        <time>2024-10-25T11:35:27Z</time>
      </trkpt>
      <trkpt lat="48.87779" lon="1.59879">
        <ele>127</ele>
        <time>2024-10-25T11:36:21Z</time>
      </trkpt>
      <trkpt lat="48.87808" lon="1.5991">
        <ele>129</ele>
        <time>2024-10-25T11:37:08Z</time>
      </trkpt>
      <trkpt lat="48.87831" lon="1.59926">
        <ele>130</ele>
        <time>2024-10-25T11:37:42Z</time>
      </trkpt>
      <trkpt lat="48.87838" lon="1.59937">
        <ele>130</ele>
        <time>2024-10-25T11:37:56Z</time>
      </trkpt>
      <trkpt lat="48.87859" lon="1.59951">
        <ele>129</ele>
        <time>2024-10-25T11:38:26Z</time>
      </trkpt>
      <trkpt lat="48.87892" lon="1.6">
        <ele>127</ele>
        <time>2024-10-25T11:39:28Z</time>
      </trkpt>
      <trkpt lat="48.87972" lon="1.60096">
        <ele>127</ele>
        <time>2024-10-25T11:41:44Z</time>
      </trkpt>
      <trkpt lat="48.88013" lon="1.60155">
        <ele>127</ele>
        <time>2024-10-25T11:42:59Z</time>
      </trkpt>
      <trkpt lat="48.88066" lon="1.60251">
        <ele>129</ele>
        <time>2024-10-25T11:44:49Z</time>
      </trkpt>
      <trkpt lat="48.88086" lon="1.60273">
        <ele>129</ele>
        <time>2024-10-25T11:45:22Z</time>
      </trkpt>
      <trkpt lat="48.88114" lon="1.60314">
        <ele>129</ele>
        <time>2024-10-25T11:46:14Z</time>
      </trkpt>
      <trkpt lat="48.88125" lon="1.60339">
        <ele>129</ele>
        <time>2024-10-25T11:46:40Z</time>
      </trkpt>
      <trkpt lat="48.88214" lon="1.60455">
        <ele>130</ele>
        <time>2024-10-25T11:49:17Z</time>
      </trkpt>
      <trkpt lat="48.88278" lon="1.60496">
        <ele>130</ele>
        <time>2024-10-25T11:50:49Z</time>
      </trkpt>
      <trkpt lat="48.88329" lon="1.605">
        <ele>131</ele>
        <time>2024-10-25T11:51:58Z</time>
      </trkpt>
      <trkpt lat="48.88437" lon="1.60538">
        <ele>130</ele>
        <time>2024-10-25T11:54:26Z</time>
      </trkpt>
      <trkpt lat="48.88504" lon="1.60584">
        <ele>129</ele>
        <time>2024-10-25T11:56:04Z</time>
      </trkpt>
      <trkpt lat="48.88524" lon="1.60602">
        <ele>128</ele>
        <time>2024-10-25T11:56:35Z</time>
      </trkpt>
      <trkpt lat="48.88563" lon="1.60644">
        <ele>128</ele>
        <time>2024-10-25T11:57:38Z</time>
      </trkpt>
      <trkpt lat="48.88624" lon="1.60732">
        <ele>125</ele>
        <time>2024-10-25T11:59:31Z</time>
      </trkpt>
      <trkpt lat="48.88667" lon="1.60775">
        <ele>124</ele>
        <time>2024-10-25T12:00:39Z</time>
      </trkpt>
      <trkpt lat="48.8876" lon="1.60907">
        <ele>119</ele>
        <time>2024-10-25T12:03:29Z</time>
      </trkpt>
      <trkpt lat="48.88798" lon="1.60953">
        <ele>118</ele>
        <time>2024-10-25T12:04:34Z</time>
      </trkpt>
      <trkpt lat="48.88817" lon="1.60963">
        <ele>118</ele>
        <time>2024-10-25T12:05:01Z</time>
      </trkpt>
      <trkpt lat="48.88848" lon="1.60951">
        <ele>117</ele>
        <time>2024-10-25T12:05:43Z</time>
      </trkpt>
      <trkpt lat="48.88871" lon="1.60963">
        <ele>117</ele>
        <time>2024-10-25T12:06:16Z</time>
      </trkpt>
      <trkpt lat="48.88916" lon="1.6101">
        <ele>115</ele>
        <time>2024-10-25T12:07:29Z</time>
      </trkpt>
      <trkpt lat="48.88971" lon="1.61054">
        <ele>115</ele>
        <time>2024-10-25T12:08:52Z</time>
      </trkpt>
      <trkpt lat="48.88988" lon="1.61076">
        <ele>114</ele>
        <time>2024-10-25T12:09:21Z</time>
      </trkpt>
      <trkpt lat="48.89037" lon="1.61123">
        <ele>114</ele>
        <time>2024-10-25T12:10:39Z</time>
      </trkpt>
      <trkpt lat="48.89054" lon="1.61154">
        <ele>113</ele>
        <time>2024-10-25T12:11:14Z</time>
      </trkpt>
      <trkpt lat="48.89097" lon="1.61203">
        <ele>113</ele>
        <time>2024-10-25T12:12:26Z</time>
      </trkpt>
      <trkpt lat="48.89128" lon="1.61229">
        <ele>112</ele>
        <time>2024-10-25T12:13:13Z</time>
      </trkpt>
      <trkpt lat="48.89159" lon="1.61273">
        <ele>111</ele>
        <time>2024-10-25T12:14:10Z</time>
      </trkpt>
      <trkpt lat="48.89197" lon="1.61332">
        <ele>110</ele>
        <time>2024-10-25T12:15:22Z</time>
      </trkpt>
      <trkpt lat="48.89237" lon="1.61414">
        <ele>107</ele>
        <time>2024-10-25T12:16:52Z</time>
      </trkpt>
      <trkpt lat="48.89252" lon="1.61351">
        <ele>109</ele>
        <time>2024-10-25T12:17:50Z</time>
      </trkpt>
      <trkpt lat="48.89307" lon="1.6119">
        <ele>114</ele>
        <time>2024-10-25T12:20:30Z</time>
      </trkpt>
      <trkpt lat="48.89328" lon="1.61101">
        <ele>116</ele>
        <time>2024-10-25T12:21:53Z</time>
      </trkpt>
      <trkpt lat="48.89335" lon="1.61032">
        <ele>117</ele>
        <time>2024-10-25T12:22:54Z</time>
      </trkpt>
      <trkpt lat="48.89333" lon="1.60927">
        <ele>120</ele>
        <time>2024-10-25T12:24:26Z</time>
      </trkpt>
      <trkpt lat="48.89344" lon="1.60684">
        <ele>124</ele>
        <time>2024-10-25T12:28:00Z</time>
      </trkpt>
      <trkpt lat="48.8936" lon="1.606">
        <ele>126</ele>
        <time>2024-10-25T12:29:16Z</time>
      </trkpt>
      <trkpt lat="48.89361" lon="1.60575">
        <ele>126</ele>
        <time>2024-10-25T12:29:38Z</time>
      </trkpt>
      <trkpt lat="48.89367" lon="1.60563">
        <ele>127</ele>
        <time>2024-10-25T12:29:52Z</time>
      </trkpt>
      <trkpt lat="48.89377" lon="1.60515">
        <ele>127</ele>
        <time>2024-10-25T12:30:36Z</time>
      </trkpt>
      <trkpt lat="48.89384" lon="1.60507">
        <ele>127</ele>
        <time>2024-10-25T12:30:48Z</time>
      </trkpt>
      <trkpt lat="48.89411" lon="1.60522">
        <ele>129</ele>
        <time>2024-10-25T12:31:26Z</time>
      </trkpt>
      <trkpt lat="48.89435" lon="1.60543">
        <ele>129</ele>
        <time>2024-10-25T12:32:03Z</time>
      </trkpt>
      <trkpt lat="48.89526" lon="1.60634">
        <ele>125</ele>
        <time>2024-10-25T12:34:28Z</time>
      </trkpt>
      <trkpt lat="48.89568" lon="1.60696">
        <ele>120</ele>
        <time>2024-10-25T12:35:46Z</time>
      </trkpt>
      <trkpt lat="48.89592" lon="1.60744">
        <ele>114</ele>
        <time>2024-10-25T12:36:39Z</time>
      </trkpt>
      <trkpt lat="48.8963" lon="1.60805">
        <ele>107</ele>
        <time>2024-10-25T12:37:53Z</time>
      </trkpt>
      <trkpt lat="48.89643" lon="1.60853">
        <ele>102</ele>
        <time>2024-10-25T12:38:38Z</time>
      </trkpt>
      <trkpt lat="48.8965" lon="1.60911">
        <ele>99</ele>
        <time>2024-10-25T12:39:30Z</time>
      </trkpt>
      <trkpt lat="48.89644" lon="1.60991">
        <ele>97</ele>
        <time>2024-10-25T12:40:41Z</time>
      </trkpt>
      <trkpt lat="48.89647" lon="1.61051">
        <ele>95</ele>
        <time>2024-10-25T12:41:34Z</time>
      </trkpt>
      <trkpt lat="48.89655" lon="1.61074">
        <ele>92</ele>
        <time>2024-10-25T12:41:56Z</time>
      </trkpt>
      <trkpt lat="48.89663" lon="1.61124">
        <ele>90</ele>
        <time>2024-10-25T12:42:42Z</time>
      </trkpt>
      <trkpt lat="48.89687" lon="1.61184">
        <ele>92</ele>
        <time>2024-10-25T12:43:43Z</time>
      </trkpt>
      <trkpt lat="48.89691" lon="1.61209">
        <ele>94</ele>
        <time>2024-10-25T12:44:06Z</time>
      </trkpt>
      <trkpt lat="48.89691" lon="1.61247">
        <ele>95</ele>
        <time>2024-10-25T12:44:39Z</time>
      </trkpt>
      <trkpt lat="48.89684" lon="1.61239">
        <ele>94</ele>
        <time>2024-10-25T12:44:51Z</time>
      </trkpt>
      <trkpt lat="48.8968" lon="1.61241">
        <ele>93</ele>
        <time>2024-10-25T12:44:56Z</time>
      </trkpt>
      <trkpt lat="48.89688" lon="1.61291">
        <ele>94</ele>
        <time>2024-10-25T12:45:42Z</time>
      </trkpt>
      <trkpt lat="48.89687" lon="1.61296">
        <ele>94</ele>
        <time>2024-10-25T12:45:46Z</time>
      </trkpt>
      <trkpt lat="48.89679" lon="1.61296">
        <ele>93</ele>
        <time>2024-10-25T12:45:57Z</time>
      </trkpt>
      <trkpt lat="48.89689" lon="1.61335">
        <ele>93</ele>
        <time>2024-10-25T12:46:34Z</time>
      </trkpt>
      <trkpt lat="48.89704" lon="1.61325">
        <ele>95</ele>
        <time>2024-10-25T12:46:55Z</time>
      </trkpt>
      <trkpt lat="48.89757" lon="1.61326">
        <ele>101</ele>
        <time>2024-10-25T12:48:06Z</time>
      </trkpt>
      <trkpt lat="48.89801" lon="1.61316">
        <ele>105</ele>
        <time>2024-10-25T12:49:06Z</time>
      </trkpt>
      <trkpt lat="48.8983" lon="1.61321">
        <ele>107</ele>
        <time>2024-10-25T12:49:44Z</time>
      </trkpt>
      <trkpt lat="48.89839" lon="1.61319">
        <ele>107</ele>
        <time>2024-10-25T12:49:57Z</time>
      </trkpt>
      <trkpt lat="48.89869" lon="1.61331">
        <ele>108</ele>
        <time>2024-10-25T12:50:38Z</time>
      </trkpt>
      <trkpt lat="48.89915" lon="1.61339">
        <ele>110</ele>
        <time>2024-10-25T12:51:40Z</time>
      </trkpt>
      <trkpt lat="48.8994" lon="1.61333">
        <ele>111</ele>
        <time>2024-10-25T12:52:14Z</time>
      </trkpt>
      <trkpt lat="48.90017" lon="1.61328">
        <ele>115</ele>
        <time>2024-10-25T12:53:56Z</time>
      </trkpt>
      <trkpt lat="48.90028" lon="1.61331">
        <ele>115</ele>
        <time>2024-10-25T12:54:11Z</time>
      </trkpt>
      <trkpt lat="48.9008" lon="1.61372">
        <ele>118</ele>
        <time>2024-10-25T12:55:29Z</time>
      </trkpt>
      <trkpt lat="48.90105" lon="1.61386">
        <ele>119</ele>
        <time>2024-10-25T12:56:05Z</time>
      </trkpt>
      <trkpt lat="48.90129" lon="1.61412">
        <ele>120</ele>
        <time>2024-10-25T12:56:44Z</time>
      </trkpt>
      <trkpt lat="48.9015" lon="1.61449">
        <ele>120</ele>
        <time>2024-10-25T12:57:27Z</time>
      </trkpt>
      <trkpt lat="48.90199" lon="1.61565">
        <ele>123</ele>
        <time>2024-10-25T12:59:28Z</time>
      </trkpt>
      <trkpt lat="48.90202" lon="1.61596">
        <ele>123</ele>
        <time>2024-10-25T12:59:56Z</time>
      </trkpt>
      <trkpt lat="48.9023" lon="1.61723">
        <ele>127</ele>
        <time>2024-10-25T13:01:53Z</time>
      </trkpt>
      <trkpt lat="48.90229" lon="1.6185">
        <ele>129</ele>
        <time>2024-10-25T13:03:45Z</time>
      </trkpt>
      <trkpt lat="48.90221" lon="1.61887">
        <ele>129</ele>
        <time>2024-10-25T13:04:19Z</time>
      </trkpt>
      <trkpt lat="48.9022" lon="1.61917">
        <ele>129</ele>
        <time>2024-10-25T13:04:45Z</time>
      </trkpt>
      <trkpt lat="48.90237" lon="1.61935">
        <ele>129</ele>
        <time>2024-10-25T13:05:13Z</time>
      </trkpt>
      <trkpt lat="48.90261" lon="1.61944">
        <ele>130</ele>
        <time>2024-10-25T13:05:46Z</time>
      </trkpt>
      <trkpt lat="48.90272" lon="1.61962">
        <ele>130</ele>
        <time>2024-10-25T13:06:07Z</time>
      </trkpt>
      <trkpt lat="48.90292" lon="1.61979">
        <ele>130</ele>
        <time>2024-10-25T13:06:38Z</time>
      </trkpt>
      <trkpt lat="48.90322" lon="1.62021">
        <ele>131</ele>
        <time>2024-10-25T13:07:32Z</time>
      </trkpt>
      <trkpt lat="48.90338" lon="1.62035">
        <ele>131</ele>
        <time>2024-10-25T13:07:57Z</time>
      </trkpt>
      <trkpt lat="48.90355" lon="1.62071">
        <ele>131</ele>
        <time>2024-10-25T13:08:36Z</time>
      </trkpt>
      <trkpt lat="48.90387" lon="1.6211">
        <ele>131</ele>
        <time>2024-10-25T13:09:30Z</time>
      </trkpt>
      <trkpt lat="48.90421" lon="1.62124">
        <ele>131</ele>
        <time>2024-10-25T13:10:17Z</time>
      </trkpt>
      <trkpt lat="48.90435" lon="1.62126">
        <ele>131</ele>
        <time>2024-10-25T13:10:36Z</time>
      </trkpt>
      <trkpt lat="48.90474" lon="1.6217">
        <ele>131</ele>
        <time>2024-10-25T13:11:41Z</time>
      </trkpt>
      <trkpt lat="48.90486" lon="1.62178">
        <ele>131</ele>
        <time>2024-10-25T13:11:59Z</time>
      </trkpt>
      <trkpt lat="48.90477" lon="1.62262">
        <ele>130</ele>
        <time>2024-10-25T13:13:13Z</time>
      </trkpt>
      <trkpt lat="48.90446" lon="1.62425">
        <ele>130</ele>
        <time>2024-10-25T13:15:42Z</time>
      </trkpt>
      <trkpt lat="48.90435" lon="1.6258">
        <ele>130</ele>
        <time>2024-10-25T13:17:59Z</time>
      </trkpt>
      <trkpt lat="48.90411" lon="1.62794">
        <ele>128</ele>
        <time>2024-10-25T13:21:09Z</time>
      </trkpt>
      <trkpt lat="48.90381" lon="1.62911">
        <ele>129</ele>
        <time>2024-10-25T13:22:59Z</time>
      </trkpt>
      <trkpt lat="48.90364" lon="1.62995">
        <ele>128</ele>
        <time>2024-10-25T13:24:16Z</time>
      </trkpt>
      <trkpt lat="48.9034" lon="1.63152">
        <ele>126</ele>
        <time>2024-10-25T13:26:38Z</time>
      </trkpt>
      <trkpt lat="48.90335" lon="1.63304">
        <ele>127</ele>
        <time>2024-10-25T13:28:51Z</time>
      </trkpt>
      <trkpt lat="48.90341" lon="1.63442">
        <ele>126</ele>
        <time>2024-10-25T13:30:53Z</time>
      </trkpt>
      <trkpt lat="48.90355" lon="1.63531">
        <ele>126</ele>
        <time>2024-10-25T13:32:13Z</time>
      </trkpt>
      <trkpt lat="48.90376" lon="1.636">
        <ele>125</ele>
        <time>2024-10-25T13:33:20Z</time>
      </trkpt>
      <trkpt lat="48.90477" lon="1.63822">
        <ele>122</ele>
        <time>2024-10-25T13:37:16Z</time>
      </trkpt>
      <trkpt lat="48.90514" lon="1.63949">
        <ele>119</ele>
        <time>2024-10-25T13:39:18Z</time>
      </trkpt>
      <trkpt lat="48.90518" lon="1.64027">
        <ele>118</ele>
        <time>2024-10-25T13:40:27Z</time>
      </trkpt>
      <trkpt lat="48.9051" lon="1.64144">
        <ele>118</ele>
        <time>2024-10-25T13:42:10Z</time>
      </trkpt>
      <trkpt lat="48.90509" lon="1.64243">
        <ele>117</ele>
        <time>2024-10-25T13:43:37Z</time>
      </trkpt>
      <trkpt lat="48.90494" lon="1.64406">
        <ele>116</ele>
        <time>2024-10-25T13:46:01Z</time>
      </trkpt>
      <trkpt lat="48.90483" lon="1.64475">
        <ele>115</ele>
        <time>2024-10-25T13:47:04Z</time>
      </trkpt>
      <trkpt lat="48.90487" lon="1.64518">
        <ele>114</ele>
        <time>2024-10-25T13:47:42Z</time>
      </trkpt>
      <trkpt lat="48.9052" lon="1.64541">
        <ele>112</ele>
        <time>2024-10-25T13:48:30Z</time>
      </trkpt>
      <trkpt lat="48.90558" lon="1.64579">
        <ele>110</ele>
        <time>2024-10-25T13:49:31Z</time>
      </trkpt>
      <trkpt lat="48.9061" lon="1.64618">
        <ele>109</ele>
        <time>2024-10-25T13:50:48Z</time>
      </trkpt>
      <trkpt lat="48.90628" lon="1.64641">
        <ele>108</ele>
        <time>2024-10-25T13:51:20Z</time>
      </trkpt>
      <trkpt lat="48.90629" lon="1.64649">
        <ele>108</ele>
        <time>2024-10-25T13:51:27Z</time>
      </trkpt>
      <trkpt lat="48.90618" lon="1.64682">
        <ele>108</ele>
        <time>2024-10-25T13:51:59Z</time>
      </trkpt>
      <trkpt lat="48.90559" lon="1.64809">
        <ele>107</ele>
        <time>2024-10-25T13:54:16Z</time>
      </trkpt>
      <trkpt lat="48.90614" lon="1.649">
        <ele>106</ele>
        <time>2024-10-25T13:56:04Z</time>
      </trkpt>
      <trkpt lat="48.90632" lon="1.64939">
        <ele>106</ele>
        <time>2024-10-25T13:56:46Z</time>
      </trkpt>
      <trkpt lat="48.90644" lon="1.64957">
        <ele>105</ele>
        <time>2024-10-25T13:57:08Z</time>
      </trkpt>
      <trkpt lat="48.90668" lon="1.65003">
        <ele>104</ele>
        <time>2024-10-25T13:58:00Z</time>
      </trkpt>
      <trkpt lat="48.90681" lon="1.65017">
        <ele>105</ele>
        <time>2024-10-25T13:58:21Z</time>
      </trkpt>
      <trkpt lat="48.90703" lon="1.65051">
        <ele>106</ele>
        <time>2024-10-25T13:59:03Z</time>
      </trkpt>
      <trkpt lat="48.90719" lon="1.65067">
        <ele>107</ele>
        <time>2024-10-25T13:59:28Z</time>
      </trkpt>
      <trkpt lat="48.90746" lon="1.65101">
        <ele>108</ele>
        <time>2024-10-25T14:00:15Z</time>
      </trkpt>
      <trkpt lat="48.90721" lon="1.6519">
        <ele>109</ele>
        <time>2024-10-25T14:01:40Z</time>
      </trkpt>
      <trkpt lat="48.90719" lon="1.65208">
        <ele>110</ele>
        <time>2024-10-25T14:01:56Z</time>
      </trkpt>
      <trkpt lat="48.90695" lon="1.65294">
        <ele>111</ele>
        <time>2024-10-25T14:03:18Z</time>
      </trkpt>
      <trkpt lat="48.90686" lon="1.65339">
        <ele>111</ele>
        <time>2024-10-25T14:03:59Z</time>
      </trkpt>
      <trkpt lat="48.90662" lon="1.65418">
        <ele>109</ele>
        <time>2024-10-25T14:05:16Z</time>
      </trkpt>
      <trkpt lat="48.90653" lon="1.65461">
        <ele>109</ele>
        <time>2024-10-25T14:05:55Z</time>
      </trkpt>
      <trkpt lat="48.90644" lon="1.6548">
        <ele>109</ele>
        <time>2024-10-25T14:06:16Z</time>
      </trkpt>
      <trkpt lat="48.90638" lon="1.65502">
        <ele>109</ele>
        <time>2024-10-25T14:06:37Z</time>
      </trkpt>
      <trkpt lat="48.90636" lon="1.65526">
        <ele>109</ele>
        <time>2024-10-25T14:06:58Z</time>
      </trkpt>
      <trkpt lat="48.90622" lon="1.65535">
        <ele>109</ele>
        <time>2024-10-25T14:07:18Z</time>
      </trkpt>
      <trkpt lat="48.90585" lon="1.65523">
        <ele>108</ele>
        <time>2024-10-25T14:08:09Z</time>
      </trkpt>
      <trkpt lat="48.90576" lon="1.65516">
        <ele>108</ele>
        <time>2024-10-25T14:08:22Z</time>
      </trkpt>
      <trkpt lat="48.90529" lon="1.65502">
        <ele>109</ele>
        <time>2024-10-25T14:09:26Z</time>
      </trkpt>
      <trkpt lat="48.90521" lon="1.65495">
        <ele>109</ele>
        <time>2024-10-25T14:09:38Z</time>
      </trkpt>
      <trkpt lat="48.90504" lon="1.65493">
        <ele>109</ele>
        <time>2024-10-25T14:10:01Z</time>
      </trkpt>
      <trkpt lat="48.90481" lon="1.65546">
        <ele>109</ele>
        <time>2024-10-25T14:10:57Z</time>
      </trkpt>
      <trkpt lat="48.90472" lon="1.65578">
        <ele>109</ele>
        <time>2024-10-25T14:11:27Z</time>
      </trkpt>
      <trkpt lat="48.90465" lon="1.65589">
        <ele>109</ele>
        <time>2024-10-25T14:11:41Z</time>
      </trkpt>
      <trkpt lat="48.90452" lon="1.656">
        <ele>109</ele>
        <time>2024-10-25T14:12:01Z</time>
      </trkpt>
      <trkpt lat="48.90441" lon="1.65606">
        <ele>109</ele>
        <time>2024-10-25T14:12:16Z</time>
      </trkpt>
      <trkpt lat="48.90425" lon="1.65605">
        <ele>109</ele>
        <time>2024-10-25T14:12:38Z</time>
      </trkpt>
      <trkpt lat="48.90363" lon="1.65575">
        <ele>108</ele>
        <time>2024-10-25T14:14:04Z</time>
      </trkpt>
      <trkpt lat="48.90342" lon="1.6557">
        <ele>107</ele>
        <time>2024-10-25T14:14:33Z</time>
      </trkpt>
      <trkpt lat="48.90332" lon="1.65577">
        <ele>106</ele>
        <time>2024-10-25T14:14:48Z</time>
      </trkpt>
      <trkpt lat="48.90319" lon="1.65615">
        <ele>106</ele>
        <time>2024-10-25T14:15:25Z</time>
      </trkpt>
      <trkpt lat="48.90189" lon="1.65708">
        <ele>106</ele>
        <time>2024-10-25T14:18:37Z</time>
      </trkpt>
      <trkpt lat="48.90167" lon="1.65719">
        <ele>106</ele>
        <time>2024-10-25T14:19:08Z</time>
      </trkpt>
      <trkpt lat="48.90141" lon="1.65736">
        <ele>106</ele>
        <time>2024-10-25T14:19:45Z</time>
      </trkpt>
      <trkpt lat="48.90119" lon="1.65743">
        <ele>106</ele>
        <time>2024-10-25T14:20:15Z</time>
      </trkpt>
      <trkpt lat="48.90106" lon="1.65751">
        <ele>106</ele>
        <time>2024-10-25T14:20:34Z</time>
      </trkpt>
      <trkpt lat="48.9005" lon="1.65769">
        <ele>107</ele>
        <time>2024-10-25T14:21:51Z</time>
      </trkpt>
      <trkpt lat="48.89957" lon="1.65774">
        <ele>107</ele>
        <time>2024-10-25T14:23:55Z</time>
      </trkpt>
      <trkpt lat="48.89902" lon="1.65765">
        <ele>107</ele>
        <time>2024-10-25T14:25:09Z</time>
      </trkpt>
      <trkpt lat="48.89867" lon="1.65762">
        <ele>107</ele>
        <time>2024-10-25T14:25:55Z</time>
      </trkpt>
      <trkpt lat="48.89788" lon="1.65763">
        <ele>107</ele>
        <time>2024-10-25T14:27:41Z</time>
      </trkpt>
      <trkpt lat="48.89761" lon="1.65765">
        <ele>107</ele>
        <time>2024-10-25T14:28:17Z</time>
      </trkpt>
      <trkpt lat="48.89722" lon="1.65775">
        <ele>106</ele>
        <time>2024-10-25T14:29:10Z</time>
      </trkpt>
      <trkpt lat="48.89686" lon="1.65812">
        <ele>104</ele>
        <time>2024-10-25T14:30:08Z</time>
      </trkpt>
      <trkpt lat="48.89563" lon="1.6595">
        <ele>94</ele>
        <time>2024-10-25T14:33:32Z</time>
      </trkpt>
      <trkpt lat="48.89553" lon="1.65992">
        <ele>91</ele>
        <time>2024-10-25T14:34:11Z</time>
      </trkpt>
      <trkpt lat="48.89552" lon="1.66052">
        <ele>89</ele>
        <time>2024-10-25T14:35:03Z</time>
      </trkpt>
      <trkpt lat="48.89571" lon="1.66094">
        <ele>90</ele>
        <time>2024-10-25T14:35:48Z</time>
      </trkpt>
      <trkpt lat="48.89553" lon="1.66096">
        <ele>87</ele>
        <time>2024-10-25T14:36:12Z</time>
      </trkpt>
      <trkpt lat="48.89497" lon="1.66042">
        <ele>81</ele>
        <time>2024-10-25T14:37:41Z</time>
      </trkpt>
      <trkpt lat="48.8948" lon="1.66002">
        <ele>79</ele>
        <time>2024-10-25T14:38:22Z</time>
      </trkpt>
      <trkpt lat="48.89466" lon="1.65985">
        <ele>77</ele>
        <time>2024-10-25T14:38:46Z</time>
      </trkpt>
      <trkpt lat="48.89457" lon="1.65964">
        <ele>76</ele>
        <time>2024-10-25T14:39:08Z</time>
      </trkpt>
      <trkpt lat="48.89447" lon="1.65907">
        <ele>75</ele>
        <time>2024-10-25T14:40:00Z</time>
      </trkpt>
      <trkpt lat="48.89447" lon="1.65918">
        <ele>75</ele>
        <time>2024-10-25T14:40:10Z</time>
      </trkpt>
      <trkpt lat="48.89442" lon="1.65922">
        <ele>73</ele>
        <time>2024-10-25T14:40:17Z</time>
      </trkpt>
      <trkpt lat="48.89425" lon="1.65919">
        <ele>70</ele>
        <time>2024-10-25T14:40:40Z</time>
      </trkpt>
      <trkpt lat="48.89403" lon="1.6593">
        <ele>67</ele>
        <time>2024-10-25T14:41:11Z</time>
      </trkpt>
      <trkpt lat="48.89399" lon="1.65927">
        <ele>67</ele>
        <time>2024-10-25T14:41:17Z</time>
      </trkpt>
      <trkpt lat="48.89394" lon="1.65906">
        <ele>67</ele>
        <time>2024-10-25T14:41:37Z</time>
      </trkpt>
      <trkpt lat="48.894" lon="1.65891">
        <ele>67</ele>
        <time>2024-10-25T14:41:52Z</time>
      </trkpt>
      <trkpt lat="48.89391" lon="1.65857">
        <ele>67</ele>
        <time>2024-10-25T14:42:24Z</time>
      </trkpt>
      <trkpt lat="48.89387" lon="1.6582">
        <ele>67</ele>
        <time>2024-10-25T14:42:57Z</time>
      </trkpt>
      <trkpt lat="48.89377" lon="1.65824">
        <ele>66</ele>
        <time>2024-10-25T14:43:11Z</time>
      </trkpt>
      <trkpt lat="48.8937" lon="1.65841">
        <ele>66</ele>
        <time>2024-10-25T14:43:28Z</time>
      </trkpt>
      <trkpt lat="48.89358" lon="1.65849">
        <ele>65</ele>
        <time>2024-10-25T14:43:46Z</time>
      </trkpt>
      <trkpt lat="48.89354" lon="1.65885">
        <ele>65</ele>
        <time>2024-10-25T14:44:18Z</time>
      </trkpt>
      <trkpt lat="48.89374" lon="1.6591">
        <ele>66</ele>
        <time>2024-10-25T14:44:53Z</time>
      </trkpt>
      <trkpt lat="48.89377" lon="1.65925">
        <ele>66</ele>
        <time>2024-10-25T14:45:06Z</time>
      </trkpt>
      <trkpt lat="48.89377" lon="1.65922">
        <ele>66</ele>
        <time>2024-10-25T14:45:09Z</time>
      </trkpt>
      <trkpt lat="48.8937" lon="1.65913">
        <ele>66</ele>
        <time>2024-10-25T14:45:21Z</time>
      </trkpt>
      <trkpt lat="48.89366" lon="1.65912">
        <ele>66</ele>
        <time>2024-10-25T14:45:27Z</time>
      </trkpt>
      <trkpt lat="48.89362" lon="1.65917">
        <ele>65</ele>
        <time>2024-10-25T14:45:33Z</time>
      </trkpt>
      <trkpt lat="48.89358" lon="1.65934">
        <ele>65</ele>
        <time>2024-10-25T14:45:49Z</time>
      </trkpt>
      <trkpt lat="48.89365" lon="1.6596">
        <ele>65</ele>
        <time>2024-10-25T14:46:14Z</time>
      </trkpt>
      <trkpt lat="48.89359" lon="1.65959">
        <ele>65</ele>
        <time>2024-10-25T14:46:22Z</time>
      </trkpt>
      <trkpt lat="48.8936" lon="1.65953">
        <ele>65</ele>
        <time>2024-10-25T14:46:27Z</time>
      </trkpt>
    </trkseg>
  </trk>
</gpx>